Time;durP1;ratioP1;P1;durP2;ratioP2;P2;SDS_P1;SDS_P2;PMS_P1;PMS_P2;Temp;Humidity;BMP_temperature;BMP_pressure;BME280_temperature;BME280_humidity;BME280_pressure;Samples;Min_cycle;Max_cycle;Signal;HPM_P1;HPM_P2
2024/03/09 00:03:22;;;;;;;10.23;9.13;;;;;;;4.45;79.87;149787.00;10625854;27;20126;-73
2024/03/09 00:08:24;;;;;;;10.48;8.05;;;;;;;4.49;79.95;149797.28;10626542;27;20047;-73
2024/03/09 00:13:27;;;;;;;8.48;7.47;;;;;;;4.41;80.29;149776.72;10625891;27;20031;-73
2024/03/09 00:18:32;;;;;;;8.25;6.90;;;;;;;4.49;80.10;149797.28;10625567;27;20443;-73
2024/03/09 00:23:50;;;;;;;9.82;7.35;;;;;;;4.63;79.21;149833.25;10625699;27;20432;-73
2024/03/09 00:28:52;;;;;;;;;;;;;;;4.67;79.17;149843.53;10626270;27;20072;-73
2024/03/09 00:33:57;;;;;;;8.48;6.85;;;;;;;4.52;79.90;149806.28;10625239;27;20341;-73
2024/03/09 00:38:59;;;;;;;8.20;6.10;;;;;;;4.45;80.22;149788.28;10624211;27;20039;-72
2024/03/09 00:44:03;;;;;;;7.90;6.45;;;;;;;4.40;80.55;149774.16;10624855;27;20122;-73
2024/03/09 00:49:04;;;;;;;7.85;6.68;;;;;;;4.46;81.03;149790.84;10625315;27;20043;-73
2024/03/09 00:54:06;;;;;;;8.77;7.05;;;;;;;4.42;81.06;149780.56;10606390;27;20069;-73
2024/03/09 00:59:08;;;;;;;11.27;5.95;;;;;;;4.44;81.00;149785.72;10624858;27;20088;-72
2024/03/09 01:04:11;;;;;;;9.85;6.68;;;;;;;4.55;80.39;149813.97;10624377;28;20043;-73
2024/03/09 01:09:15;;;;;;;6.00;5.30;;;;;;;4.51;80.66;149803.69;10624217;28;20122;-72
2024/03/09 01:14:17;;;;;;;7.72;5.75;;;;;;;4.53;81.31;149807.56;10624354;28;20130;-72
2024/03/09 01:19:19;;;;;;;7.18;6.45;;;;;;;4.23;82.66;149733.03;10625585;28;20458;-73
2024/03/09 01:24:21;;;;;;;8.23;6.85;;;;;;;4.34;81.99;149758.72;10624087;28;20039;-72
2024/03/09 01:29:23;;;;;;;8.20;6.65;;;;;;;4.20;82.99;149725.31;10624500;28;20055;-73
2024/03/09 01:34:27;;;;;;;8.65;6.68;;;;;;;4.24;83.07;149734.31;10624064;28;20043;-73
2024/03/09 01:39:30;;;;;;;8.55;7.35;;;;;;;4.21;83.08;149726.63;10623845;28;20073;-73
2024/03/09 01:44:32;;;;;;;8.48;6.57;;;;;;;4.05;84.93;149686.78;10624408;28;20073;-73
2024/03/09 01:49:36;;;;;;;10.32;7.10;;;;;;;4.12;85.25;149704.78;10629338;27;20092;-72
2024/03/09 01:54:41;;;;;;;10.38;6.82;;;;;;;4.04;86.36;149685.50;10631749;27;20445;-73
2024/03/09 01:59:48;;;;;;;9.70;6.78;;;;;;;4.32;85.02;149753.59;10632327;27;20043;-73
2024/03/09 02:04:50;;;;;;;12.57;7.38;;;;;;;4.01;86.93;149677.78;10631944;27;20118;-73
2024/03/09 02:09:53;;;;;;;9.85;7.80;;;;;;;4.13;87.55;149706.06;10632014;27;20418;-73
2024/03/09 02:14:54;;;;;;;8.13;6.68;;;;;;;4.07;87.53;149691.91;10612627;27;20050;-74
2024/03/09 02:19:56;;;;;;;9.65;7.05;;;;;;;3.83;88.88;149630.28;10630774;27;20047;-73
2024/03/09 02:24:58;;;;;;;8.30;6.85;;;;;;;3.93;88.82;149657.22;10612337;27;20134;-73
2024/03/09 02:30:00;;;;;;;9.25;7.53;;;;;;;3.90;89.92;149649.56;10630529;27;20507;-72
2024/03/09 02:35:02;;;;;;;9.57;6.90;;;;;;;3.92;89.35;149653.41;10629675;27;20035;-74
2024/03/09 02:40:07;;;;;;;8.65;7.22;;;;;;;3.96;88.61;149664.97;10630374;27;20374;-75
2024/03/09 02:45:09;;;;;;;9.55;7.00;;;;;;;4.05;87.67;149686.78;10629549;27;20039;-72
2024/03/09 02:50:11;;;;;;;9.98;7.82;;;;;;;3.89;89.24;149645.69;10611069;27;20047;-73
2024/03/09 02:55:12;;;;;;;9.07;7.10;;;;;;;4.01;88.04;149677.78;10629716;27;20051;-73
2024/03/09 03:00:14;;;;;;;9.63;7.55;;;;;;;3.99;88.32;149672.69;10628281;27;20070;-73
2024/03/09 03:05:16;;;;;;;8.15;6.70;;;;;;;4.28;87.29;149744.59;10628692;27;20035;-73
2024/03/09 03:10:18;;;;;;;9.45;7.68;;;;;;;4.47;86.12;149792.13;10628493;27;20039;-73
2024/03/09 03:15:20;;;;;;;10.00;7.22;;;;;;;4.25;86.76;149736.88;10627621;27;20113;-73
2024/03/09 03:20:22;;;;;;;8.43;7.28;;;;;;;4.30;86.88;149749.75;10627801;27;20043;-73
2024/03/09 03:25:24;;;;;;;6.45;5.32;;;;;;;4.60;84.91;149824.25;10627653;27;20043;-73
2024/03/09 03:30:26;;;;;;;7.75;6.72;;;;;;;4.53;85.47;149807.56;10627785;27;20043;-73
2024/03/09 03:35:27;;;;;;;9.20;7.13;;;;;;;4.35;86.38;149761.31;10627171;27;20154;-73
2024/03/09 03:40:30;;;;;;;7.97;6.60;;;;;;;4.67;84.41;149843.53;10626911;27;20092;-73
2024/03/09 03:45:33;;;;;;;7.72;6.38;;;;;;;4.79;83.63;149873.13;10626806;27;20065;-73
2024/03/09 03:50:35;;;;;;;9.60;6.28;;;;;;;4.69;84.22;149847.38;10626632;27;20039;-73
2024/03/09 03:55:40;;;;;;;7.13;5.82;;;;;;;4.61;85.16;149826.84;10626133;27;20209;-73
2024/03/09 04:00:43;;;;;;;8.48;6.88;;;;;;;4.64;84.32;149835.81;10626471;27;20480;-73
2024/03/09 04:05:48;;;;;;;7.25;6.45;;;;;;;4.60;84.45;149824.25;10626072;27;20035;-73
2024/03/09 04:10:51;;;;;;;7.45;6.65;;;;;;;4.84;83.71;149885.97;10626460;27;20075;-73
2024/03/09 04:15:53;;;;;;;8.25;7.30;;;;;;;4.64;84.53;149834.53;10625830;27;20448;-73
2024/03/09 04:20:56;;;;;;;7.65;6.43;;;;;;;4.77;83.26;149869.22;10625329;27;20046;-73
2024/03/09 04:26:02;;;;;;;8.35;7.35;;;;;;;4.92;82.30;149906.53;10625242;27;20035;-73
2024/03/09 04:31:06;;;;;;;11.07;7.43;;;;;;;4.93;82.65;149909.09;10626570;27;20039;-74
2024/03/09 04:36:08;;;;;;;8.15;7.18;;;;;;;4.90;82.24;149900.09;10624811;27;20092;-74
2024/03/09 04:41:11;;;;;;;6.95;6.25;;;;;;;5.19;80.88;149973.41;10624964;27;20496;-74
2024/03/09 04:46:14;;;;;;;8.77;6.32;;;;;;;5.05;81.94;149938.69;10624664;27;20070;-73
2024/03/09 04:51:15;;;;;;;9.48;7.55;;;;;;;5.41;79.57;150028.69;10624954;27;20114;-73
2024/03/09 04:56:17;;;;;;;9.60;7.07;;;;;;;5.14;80.31;149960.53;10625442;27;20395;-73
2024/03/09 05:01:19;;;;;;;11.02;6.43;;;;;;;5.14;80.72;149961.81;10624359;28;20048;-73
2024/03/09 05:06:21;;;;;;;7.88;6.60;;;;;;;5.16;80.54;149966.94;10606128;28;20051;-74
2024/03/09 05:11:23;;;;;;;7.55;6.63;;;;;;;5.24;80.38;149986.25;10606054;28;20090;-73
2024/03/09 05:16:25;;;;;;;8.15;7.30;;;;;;;5.16;80.62;149965.66;10623942;28;20059;-73
2024/03/09 05:21:33;;;;;;;9.38;8.35;;;;;;;4.96;81.97;149916.84;10623594;27;20050;-73
2024/03/09 05:26:35;;;;;;;10.18;7.57;;;;;;;5.04;81.83;149936.06;10632415;27;20050;-73
2024/03/09 05:31:38;;;;;;;9.35;8.27;;;;;;;5.00;82.28;149927.13;10632072;27;20090;-72
2024/03/09 05:36:40;;;;;;;10.18;7.75;;;;;;;5.26;80.96;149991.38;10631568;27;20530;-73
2024/03/09 05:41:42;;;;;;;10.68;6.65;;;;;;;5.49;79.95;150050.56;10613858;27;20384;-73
2024/03/09 05:46:44;;;;;;;9.27;7.22;;;;;;;5.09;82.22;149947.66;10631873;27;20130;-73
2024/03/09 05:51:46;;;;;;;10.88;7.40;;;;;;;5.26;81.91;149991.38;10631269;27;20088;-73
2024/03/09 05:56:47;;;;;;;9.85;8.50;;;;;;;5.10;82.21;149950.25;10631059;27;20444;-73
2024/03/09 06:01:49;;;;;;;8.13;6.93;;;;;;;5.32;82.05;150008.09;10630946;27;20542;-72
2024/03/09 06:06:52;;;;;;;9.77;7.57;;;;;;;5.21;81.61;149979.78;10631972;27;20066;-73
2024/03/09 06:11:54;;;;;;;8.60;6.88;;;;;;;5.50;81.14;150051.84;10630520;27;20042;-73
2024/03/09 06:16:56;;;;;;;11.18;8.45;;;;;;;5.46;80.88;150042.81;10630687;27;20047;-73
2024/03/09 06:21:59;;;;;;;8.50;7.65;;;;;;;5.25;82.57;149988.81;10630381;27;20410;-73
2024/03/09 06:27:01;;;;;;;9.82;8.35;;;;;;;5.38;81.72;150022.22;10630414;27;20050;-73
2024/03/09 06:32:05;;;;;;;9.30;7.97;;;;;;;5.34;82.29;150010.66;10629868;27;20610;-73
2024/03/09 06:37:07;;;;;;;9.88;8.82;;;;;;;5.55;81.47;150065.97;10628515;27;20064;-73
2024/03/09 06:42:09;;;;;;;9.70;8.10;;;;;;;5.35;82.75;150014.50;10629405;27;20035;-73
2024/03/09 06:47:13;;;;;;;10.20;8.65;;;;;;;5.64;81.89;150087.84;10629489;27;20042;-73
2024/03/09 06:52:15;;;;;;;11.43;9.07;;;;;;;5.50;82.53;150053.13;10629330;27;20039;-73
2024/03/09 06:57:18;;;;;;;11.65;9.25;;;;;;;5.83;81.19;150135.41;10629164;27;20043;-73
2024/03/09 07:02:21;;;;;;;9.70;8.70;;;;;;;5.68;82.28;150098.13;10610669;27;20063;-73
2024/03/09 07:07:22;;;;;;;12.95;9.23;;;;;;;5.97;80.95;150171.47;10629022;27;20042;-73
2024/03/09 07:12:24;;;;;;;10.48;9.43;;;;;;;5.82;81.50;150134.13;10610308;27;20102;-73
2024/03/09 07:17:28;;;;;;;12.13;9.65;;;;;;;5.75;82.78;150116.09;10628256;27;20043;-74
2024/03/09 07:22:31;;;;;;;10.68;9.40;;;;;;;5.83;82.00;150135.41;10628057;27;20039;-74
2024/03/09 07:27:35;;;;;;;11.70;9.23;;;;;;;5.96;81.57;150167.63;10628064;27;20043;-73
2024/03/09 07:32:43;;;;;;;12.18;9.85;;;;;;;6.12;80.35;150207.53;10627695;27;20043;-73
2024/03/09 07:37:53;;;;;;;9.93;8.95;;;;;;;6.06;80.51;150193.34;10609232;27;20158;-74
2024/03/09 07:42:55;;;;;;;11.38;9.88;;;;;;;6.07;81.60;150197.25;10627153;27;20050;-74
2024/03/09 07:47:58;;;;;;;10.15;8.82;;;;;;;6.17;80.34;150221.69;10626176;27;20596;-74
2024/03/09 07:53:02;;;;;;;10.45;8.50;;;;;;;6.19;80.46;150225.53;10630129;27;20155;-74
2024/03/09 07:58:04;;;;;;;11.77;9.98;;;;;;;6.36;79.52;150268.00;10628010;27;20056;-74
2024/03/09 08:03:28;;;;;;;9.63;8.43;;;;;;;6.35;79.88;150265.44;10601502;27;20035;-73
2024/03/09 08:08:30;;;;;;;10.60;8.73;;;;;;;6.25;80.79;150241.00;10627059;27;20117;-74
2024/03/09 08:13:35;;;;;;;12.68;9.57;;;;;;;6.47;79.04;150296.31;10609158;27;20039;-74
2024/03/09 08:18:37;;;;;;;11.55;10.35;;;;;;;6.38;79.55;150274.44;10610038;27;20084;-73
2024/03/09 08:23:42;;;;;;;11.32;10.10;;;;;;;6.61;79.42;150331.06;10630408;27;20051;-76
2024/03/09 08:28:46;;;;;;;10.73;9.63;;;;;;;6.91;77.34;150408.31;10632565;27;20121;-73
2024/03/09 08:33:50;;;;;;;10.40;9.38;;;;;;;6.81;78.35;150383.81;10626329;27;20055;-73
2024/03/09 08:38:53;;;;;;;9.05;8.15;;;;;;;6.91;77.72;150407.03;10607283;27;20059;-73
2024/03/09 08:43:54;;;;;;;9.93;8.38;;;;;;;7.32;75.89;150512.59;10625523;27;20204;-75
2024/03/09 08:48:57;;;;;;;10.57;9.48;;;;;;;7.36;76.51;150521.63;10624573;27;20047;-73
2024/03/09 08:54:00;;;;;;;10.70;9.43;;;;;;;7.69;74.56;150605.34;10607444;27;20112;-73
2024/03/09 08:59:02;;;;;;;10.70;9.60;;;;;;;7.55;74.51;150570.56;10624384;27;20070;-73
2024/03/09 09:04:04;;;;;;;10.38;9.27;;;;;;;7.86;74.83;150647.88;10626938;28;20089;-73
2024/03/09 09:09:09;;;;;;;9.43;7.88;;;;;;;8.19;73.24;150730.31;10629355;28;20551;-74
2024/03/09 09:14:11;;;;;;;9.82;8.63;;;;;;;7.89;72.78;150655.59;10624758;28;20043;-74
2024/03/09 09:19:13;;;;;;;8.77;7.72;;;;;;;8.09;72.49;150707.13;10624219;28;20057;-74
2024/03/09 09:24:16;;;;;;;10.02;9.02;;;;;;;8.04;72.41;150692.97;10624496;28;20063;-74
2024/03/09 09:29:18;;;;;;;10.25;8.48;;;;;;;8.49;70.98;150807.72;10624097;28;20425;-74
2024/03/09 09:34:19;;;;;;;9.75;8.27;;;;;;;8.29;70.34;150756.13;10623520;28;20044;-74
2024/03/09 09:39:25;;;;;;;10.20;8.18;;;;;;;8.56;71.25;150824.50;10624495;28;20045;-72
2024/03/09 09:44:28;;;;;;;8.15;7.32;;;;;;;8.99;68.33;150934.09;10623054;28;20200;-74
2024/03/09 09:49:30;;;;;;;8.52;7.63;;;;;;;9.22;66.85;150990.84;10623689;28;20409;-73
2024/03/09 09:54:33;;;;;;;8.90;8.00;;;;;;;9.04;66.22;150947.00;10605262;28;20407;-73
2024/03/09 09:59:35;;;;;;;7.40;6.70;;;;;;;9.19;66.34;150984.38;10617348;27;20042;-74
2024/03/09 10:04:38;;;;;;;6.45;5.85;;;;;;;9.03;66.85;150944.44;10647489;27;20114;-73
2024/03/09 10:09:40;;;;;;;9.13;6.82;;;;;;;9.17;64.67;150977.94;10668848;27;20077;-73
2024/03/09 10:14:42;;;;;;;8.38;7.55;;;;;;;8.90;64.71;150910.88;10673128;27;20035;-73
2024/03/09 10:19:44;;;;;;;7.97;7.18;;;;;;;9.22;64.60;150992.13;10672992;27;20456;-74
2024/03/09 10:24:57;;;;;;;8.20;7.40;;;;;;;9.30;63.90;151011.50;10672605;27;20491;-74
2024/03/09 10:30:15;;;;;;;7.18;6.47;;;;;;;9.56;65.00;151078.56;10672801;27;20483;-73
2024/03/09 10:35:17;;;;;;;7.68;6.53;;;;;;;9.88;61.72;151157.28;10618205;27;20444;-75
2024/03/09 10:40:20;;;;;;;8.35;7.18;;;;;;;10.12;62.38;151219.22;10630104;27;20424;-73
2024/03/09 10:45:29;;;;;;;7.15;6.45;;;;;;;10.09;61.31;151212.78;10631581;27;20035;-72
2024/03/09 10:50:59;;;;;;;7.95;6.38;;;;;;;10.16;61.08;151229.53;10631445;27;20503;-74
2024/03/09 10:56:21;;;;;;;6.95;5.63;;;;;;;10.39;59.36;151287.66;10611807;27;20046;-74
2024/03/09 11:01:23;;;;;;;6.88;6.18;;;;;;;10.61;58.74;151343.19;10610364;27;20566;-74
2024/03/09 11:06:28;;;;;;;6.60;5.78;;;;;;;10.53;59.29;151323.81;10639292;27;20042;-73
2024/03/09 11:11:31;;;;;;;8.13;7.32;;;;;;;10.27;58.45;151258.00;10652862;27;20066;-74
2024/03/09 11:16:36;;;;;;;7.38;6.65;;;;;;;10.19;59.35;151237.28;10672204;27;20455;-73
2024/03/09 11:21:38;;;;;;;7.97;6.65;;;;;;;10.10;57.98;151215.34;10651773;27;20046;-73
2024/03/09 11:26:53;;;;;;;6.57;5.93;;;;;;;10.54;60.07;151325.13;10671735;27;20481;-73
2024/03/09 11:32:05;;;;;;;6.72;6.07;;;;;;;10.47;58.44;151308.31;10672326;27;20062;-72
2024/03/09 11:37:13;;;;;;;7.80;7.10;;;;;;;10.63;58.44;151347.09;10671071;27;20027;-72
2024/03/09 11:42:18;;;;;;;6.15;5.57;;;;;;;10.12;58.88;151219.22;10671340;27;20046;-74
2024/03/09 11:47:20;;;;;;;7.75;6.95;;;;;;;9.82;59.48;151144.34;10670719;27;20448;-74
2024/03/09 11:52:26;;;;;;;7.60;5.85;;;;;;;9.76;61.26;151127.59;10670690;27;20073;-73
2024/03/09 11:57:29;;;;;;;7.20;6.10;;;;;;;9.84;62.68;151149.53;10627650;27;20090;-73
2024/03/09 12:02:34;;;;;;;7.22;6.53;;;;;;;9.88;61.63;151157.28;10608700;27;20095;-72
2024/03/09 12:07:39;;;;;;;7.70;6.97;;;;;;;10.09;60.20;151211.44;10609681;27;20050;-74
2024/03/09 12:12:45;;;;;;;7.55;6.55;;;;;;;10.17;59.31;151230.81;10607672;27;20483;-73
2024/03/09 12:17:50;;;;;;;7.38;6.38;;;;;;;10.25;60.37;151251.53;10631441;27;20062;-76
2024/03/09 12:22:54;;;;;;;;;;;;;;;10.11;60.20;151217.91;10602637;27;20043;-74
2024/03/09 12:28:02;;;;;;;7.00;6.40;;;;;;;9.96;60.54;151179.22;10611043;27;19923;-75
2024/03/09 12:33:15;;;;;;;7.33;6.63;;;;;;;9.81;62.42;151141.78;10620421;27;20031;-74
2024/03/09 12:38:21;;;;;;;7.95;7.15;;;;;;;10.17;62.00;151232.09;10634861;27;20039;-73
2024/03/09 12:43:25;;;;;;;7.35;6.65;;;;;;;9.75;60.96;151125.00;10654056;27;20039;-72
2024/03/09 12:48:30;;;;;;;8.70;7.22;;;;;;;9.53;62.52;151070.81;10676524;27;20050;-73
2024/03/09 12:53:39;;;;;;;7.57;6.78;;;;;;;9.52;63.32;151066.97;10653905;27;20064;-72
2024/03/09 12:58:47;;;;;;;7.43;6.70;;;;;;;9.61;63.44;151090.19;10638215;27;20034;-72
2024/03/09 13:04:04;;;;;;;8.55;7.13;;;;;;;9.93;61.81;151170.19;10566898;28;20039;-73
2024/03/09 13:09:15;;;;;;;7.23;6.53;;;;;;;9.93;61.07;151171.47;10588492;28;20411;-71
2024/03/09 13:14:21;;;;;;;7.30;6.55;;;;;;;10.22;61.16;151245.00;10566500;28;20040;-72
2024/03/09 13:19:24;;;;;;;7.93;7.22;;;;;;;9.97;62.30;151180.50;10607447;28;20035;-72
2024/03/09 13:24:27;;;;;;;7.25;6.53;;;;;;;9.93;62.65;151171.47;10625373;28;20121;-72
2024/03/09 13:29:29;;;;;;;8.20;6.85;;;;;;;10.05;63.49;151202.44;10625514;28;20122;-72
2024/03/09 13:34:33;;;;;;;7.22;6.60;;;;;;;10.25;62.00;151252.81;10625555;28;20035;-71
2024/03/09 13:39:36;;;;;;;8.32;7.50;;;;;;;9.97;62.81;151180.50;10625590;28;20071;-71
2024/03/09 13:44:38;;;;;;;7.55;6.78;;;;;;;9.71;63.29;151114.69;10628896;27;20047;-72
2024/03/09 13:49:40;;;;;;;8.80;7.78;;;;;;;9.61;64.00;151090.19;10617255;27;20039;-71
2024/03/09 13:54:44;;;;;;;9.82;7.72;;;;;;;9.42;64.80;151042.41;10653025;27;20118;-73
2024/03/09 13:59:48;;;;;;;8.75;7.72;;;;;;;9.59;65.58;151086.28;10637580;27;20561;-71
2024/03/09 14:04:54;;;;;;;9.35;8.30;;;;;;;9.59;64.22;151086.28;10615583;27;20504;-71
2024/03/09 14:09:55;;;;;;;8.98;8.07;;;;;;;9.41;64.24;151038.56;10632619;27;20478;-72
2024/03/09 14:14:57;;;;;;;8.90;8.02;;;;;;;9.26;65.33;151002.44;10634175;27;20403;-71
2024/03/09 14:20:03;;;;;;;10.05;9.02;;;;;;;9.05;66.97;150949.56;10604151;27;20055;-71
2024/03/09 14:25:10;;;;;;;9.35;8.30;;;;;;;9.18;66.44;150980.53;10610344;27;20035;-72
2024/03/09 14:30:13;;;;;;;8.85;7.95;;;;;;;9.15;66.02;150972.78;10614745;27;20122;-71
2024/03/09 14:35:15;;;;;;;10.35;9.25;;;;;;;8.96;67.23;150926.34;10631337;27;20039;-72
2024/03/09 14:40:23;;;;;;;8.98;8.07;;;;;;;9.07;67.26;150954.75;10612855;27;20511;-71
2024/03/09 14:45:26;;;;;;;10.02;8.63;;;;;;;9.23;67.51;150993.41;10628084;27;20035;-72
2024/03/09 14:50:29;;;;;;;10.27;9.27;;;;;;;9.47;65.80;151055.31;10630483;27;20043;-71
2024/03/09 14:55:31;;;;;;;9.18;8.27;;;;;;;9.30;66.25;151012.78;10624937;27;20034;-71
2024/03/09 15:05:44;;;;;;;11.77;8.45;;;;;;;9.59;65.63;151085.00;10644771;27;20062;-71
2024/03/09 15:10:54;;;;;;;10.60;9.60;;;;;;;9.40;66.68;151037.28;10672771;27;20079;-72
2024/03/09 15:15:56;;;;;;;10.82;9.70;;;;;;;9.54;66.25;151072.09;10673851;27;20138;-71
2024/03/09 15:21:00;;;;;;;10.68;9.60;;;;;;;9.45;67.42;151048.88;10674015;27;20073;-71
2024/03/09 15:26:02;;;;;;;10.13;9.13;;;;;;;9.36;67.90;151026.94;10652305;27;20035;-70
2024/03/09 15:31:07;;;;;;;11.48;10.38;;;;;;;9.27;68.72;151005.03;10671193;27;20077;-71
2024/03/09 15:36:13;;;;;;;13.07;11.73;;;;;;;9.27;69.14;151005.03;10651982;27;20073;-72
2024/03/09 15:41:15;;;;;;;13.23;11.93;;;;;;;9.22;69.03;150992.13;10610410;27;20092;-71
2024/03/09 15:46:18;;;;;;;13.82;12.50;;;;;;;9.18;69.92;150981.81;10629178;27;20114;-71
2024/03/09 15:51:23;;;;;;;12.63;11.27;;;;;;;9.09;70.57;150958.59;10628372;27;20047;-72
2024/03/09 15:56:25;;;;;;;13.02;11.73;;;;;;;9.08;71.35;150957.31;10609963;27;20495;-72
2024/03/09 16:01:27;;;;;;;13.25;11.95;;;;;;;9.12;70.95;150966.34;10628186;27;20043;-71
2024/03/09 16:06:29;;;;;;;14.13;12.80;;;;;;;9.07;71.93;150953.41;10608659;27;20047;-71
2024/03/09 16:11:32;;;;;;;16.35;14.85;;;;;;;9.02;72.15;150940.53;10609925;27;20043;-70
2024/03/09 16:16:34;;;;;;;14.90;13.43;;;;;;;8.90;73.22;150909.56;10627906;27;20035;-71
2024/03/09 16:21:38;;;;;;;17.10;14.30;;;;;;;8.73;73.95;150867.06;10609659;27;20080;-71
2024/03/09 16:26:43;;;;;;;16.42;14.82;;;;;;;8.98;73.02;150931.47;10608602;27;20049;-71
2024/03/09 16:31:48;;;;;;;16.75;15.25;;;;;;;8.80;73.31;150885.06;10607944;27;20088;-71
2024/03/09 16:36:51;;;;;;;17.15;15.32;;;;;;;8.46;75.53;150800.00;10593287;27;20043;-71
2024/03/09 16:41:53;;;;;;;17.40;15.57;;;;;;;8.58;75.39;150830.91;10609964;27;20039;-71
2024/03/09 16:46:57;;;;;;;20.95;17.17;;;;;;;8.43;76.32;150790.97;10609353;27;20043;-71
2024/03/09 16:52:00;;;;;;;21.88;17.60;;;;;;;8.54;75.83;150819.31;10627779;27;20154;-71
2024/03/09 16:57:02;;;;;;;19.13;17.27;;;;;;;8.14;78.03;150718.72;10606166;27;20380;-71
2024/03/09 17:02:07;;;;;;;21.00;18.77;;;;;;;8.28;77.96;150754.84;10626050;27;20039;-71
2024/03/09 17:07:11;;;;;;;25.77;19.77;;;;;;;7.88;79.57;150651.72;10625440;28;20039;-71
2024/03/09 17:12:13;;;;;;;22.83;19.20;;;;;;;7.84;79.98;150642.72;10623113;28;20499;-71
2024/03/09 17:17:15;;;;;;;24.05;19.50;;;;;;;7.96;79.39;150672.34;10624584;27;20058;-72
2024/03/09 17:22:19;;;;;;;24.85;20.05;;;;;;;8.04;78.62;150692.97;10633110;27;20046;-71
2024/03/09 17:27:23;;;;;;;28.63;19.98;;;;;;;7.93;79.54;150665.91;10636280;27;20039;-72
2024/03/09 17:32:25;;;;;;;26.88;21.10;;;;;;;7.87;80.15;150650.44;10616600;27;20047;-71
2024/03/09 17:37:27;;;;;;;27.55;21.35;;;;;;;7.88;80.16;150651.72;10634263;27;20031;-72
2024/03/09 17:42:29;;;;;;;28.02;22.13;;;;;;;7.62;81.53;150586.06;10634470;27;20043;-72
2024/03/09 17:47:31;;;;;;;30.70;21.02;;;;;;;7.42;82.97;150535.78;10634172;27;20078;-72
2024/03/09 17:52:33;;;;;;;26.75;19.77;;;;;;;7.45;83.17;150543.53;10633759;27;20495;-71
2024/03/09 17:57:36;;;;;;;29.10;20.80;;;;;;;7.26;83.81;150497.19;10631621;27;20038;-71
2024/03/09 18:02:38;;;;;;;28.67;21.35;;;;;;;7.22;84.45;150486.88;10630613;27;20092;-70
2024/03/09 18:07:39;;;;;;;30.00;21.33;;;;;;;7.18;84.97;150476.56;10630580;27;20035;-71
2024/03/09 18:12:42;;;;;;;37.45;21.70;;;;;;;7.05;86.62;150444.38;10630927;27;20495;-71
2024/03/09 18:17:46;;;;;;;31.05;21.40;;;;;;;6.92;87.67;150409.59;10629702;27;20478;-70
2024/03/09 18:22:51;;;;;;;33.80;22.20;;;;;;;6.81;88.99;150382.53;10631102;27;20114;-70
2024/03/09 18:27:55;;;;;;;32.33;21.25;;;;;;;6.81;88.90;150383.81;10629993;27;20128;-71
2024/03/09 18:32:57;;;;;;;34.28;21.50;;;;;;;6.67;89.29;150347.78;10629360;27;20046;-71
2024/03/09 18:37:59;;;;;;;25.88;21.25;;;;;;;6.66;90.45;150343.94;10629735;27;20043;-71
2024/03/09 18:43:02;;;;;;;39.42;23.85;;;;;;;6.74;90.61;150365.81;10611247;27;20100;-71
2024/03/09 18:48:05;;;;;;;34.33;22.67;;;;;;;6.77;91.15;150373.56;10630263;27;20092;-70
2024/03/09 18:53:07;;;;;;;37.10;23.17;;;;;;;6.80;91.05;150379.97;10630171;27;20046;-70
2024/03/09 18:58:09;;;;;;;32.42;22.20;;;;;;;6.61;91.29;150332.34;10629601;27;20078;-71
2024/03/09 19:03:11;;;;;;;37.92;23.50;;;;;;;6.45;92.25;150292.44;10629357;27;20540;-70
2024/03/09 19:08:13;;;;;;;38.45;24.15;;;;;;;6.20;94.23;150228.13;10610918;27;20039;-71
2024/03/09 19:13:16;;;;;;;39.85;24.88;;;;;;;6.12;94.21;150207.53;10629124;27;20047;-70
2024/03/09 19:18:20;;;;;;;40.75;23.83;;;;;;;5.77;96.62;150120.00;10593868;27;20097;-70
2024/03/09 19:23:22;;;;;;;50.20;27.85;;;;;;;5.78;97.37;150123.84;10610454;27;20053;-71
2024/03/09 19:28:26;;;;;;;47.28;25.65;;;;;;;5.67;98.60;150094.28;10611937;27;20108;-71
2024/03/09 19:33:28;;;;;;;34.67;23.67;;;;;;;5.52;98.84;150056.94;10609878;27;20118;-71
2024/03/09 19:38:32;;;;;;;34.67;23.45;;;;;;;5.41;100.00;150029.97;10628481;27;20051;-70
2024/03/09 19:43:35;;;;;;;42.40;24.75;;;;;;;5.43;100.00;150033.81;10609199;27;20414;-71
2024/03/09 19:48:37;;;;;;;44.10;24.20;;;;;;;5.79;100.00;150125.13;10609570;27;20043;-71
2024/03/09 19:53:40;;;;;;;40.22;24.63;;;;;;;5.66;100.00;150092.94;10627702;27;20039;-71
2024/03/09 19:58:44;;;;;;;40.38;25.60;;;;;;;5.90;100.00;150153.44;10609091;27;20047;-71
2024/03/09 20:03:47;;;;;;;46.72;26.23;;;;;;;5.81;100.00;150131.56;10627379;27;20121;-71
2024/03/09 20:08:50;;;;;;;41.65;25.33;;;;;;;5.84;100.00;150137.97;10626968;27;20529;-70
2024/03/09 20:13:51;;;;;;;45.15;26.52;;;;;;;5.78;100.00;150123.84;10626143;27;20046;-71
2024/03/09 20:18:53;;;;;;;42.17;25.67;;;;;;;5.56;100.00;150067.25;10627363;27;20046;-72
2024/03/09 20:23:55;;;;;;;39.65;25.58;;;;;;;5.41;100.00;150029.97;10609156;27;20039;-71
2024/03/09 20:28:57;;;;;;;39.95;24.42;;;;;;;5.25;100.00;149988.81;10627747;27;20072;-71
2024/03/09 20:34:02;;;;;;;39.88;25.75;;;;;;;5.36;100.00;150017.13;10626562;27;20039;-71
2024/03/09 20:39:04;;;;;;;44.53;25.63;;;;;;;5.81;100.00;150130.28;10627367;27;20035;-70
2024/03/09 20:44:05;;;;;;;40.15;24.88;;;;;;;5.84;100.00;150137.97;10626974;27;20035;-70
2024/03/09 20:49:08;;;;;;;41.42;25.10;;;;;;;5.55;100.00;150064.69;10626286;27;20063;-71
2024/03/09 20:54:17;;;;;;;36.90;24.00;;;;;;;5.56;100.00;150067.25;10625497;27;20078;-72
2024/03/09 20:59:24;;;;;;;38.00;23.35;;;;;;;5.76;100.00;150117.44;10625965;27;20121;-71
2024/03/09 21:04:25;;;;;;;;;;;;;;;5.72;100.00;150107.13;10626583;27;20551;-71
2024/03/09 21:09:27;;;;;;;41.50;23.05;;;;;;;6.07;100.00;150195.94;10626730;28;19919;-72
2024/03/09 21:14:30;;;;;;;27.20;21.77;;;;;;;6.01;100.00;150180.47;10590756;28;20078;-71
2024/03/09 21:19:31;;;;;;;33.30;22.00;;;;;;;6.07;100.00;150197.25;10627694;28;20104;-71
2024/03/09 21:24:33;;;;;;;31.42;21.70;;;;;;;5.80;100.00;150127.72;10607281;28;20129;-70
2024/03/09 21:29:35;;;;;;;26.77;21.00;;;;;;;5.98;100.00;150174.09;10606847;28;20051;-71
2024/03/09 21:34:37;;;;;;;26.35;19.70;;;;;;;5.98;100.00;150172.78;10626198;28;20047;-72
2024/03/09 21:39:39;;;;;;;27.63;20.83;;;;;;;5.79;100.00;150126.41;10626478;28;20138;-71
2024/03/09 21:44:41;;;;;;;27.85;20.75;;;;;;;5.96;100.00;150168.91;10607420;28;20482;-71
2024/03/09 21:49:43;;;;;;;24.27;19.15;;;;;;;5.91;100.00;150154.72;10626031;28;20478;-73
2024/03/09 21:54:44;;;;;;;25.88;19.52;;;;;;;5.84;100.00;150137.97;10626105;28;20101;-71
2024/03/09 21:59:46;;;;;;;23.75;19.13;;;;;;;5.94;100.00;150163.78;10626957;28;20497;-72
2024/03/09 22:04:48;;;;;;;21.15;18.45;;;;;;;6.03;100.00;150185.66;10609861;27;20073;-72
2024/03/09 22:09:52;;;;;;;19.75;17.90;;;;;;;6.18;100.00;150222.97;10632797;27;20055;-72
2024/03/09 22:14:55;;;;;;;21.45;18.33;;;;;;;6.04;100.00;150189.50;10615154;27;20126;-72
2024/03/09 22:19:57;;;;;;;20.48;18.42;;;;;;;6.02;100.00;150183.03;10632259;27;20039;-71
2024/03/09 22:24:59;;;;;;;23.55;17.42;;;;;;;6.10;100.00;150202.34;10613687;27;20047;-70
2024/03/09 22:30:05;;;;;;;21.05;17.25;;;;;;;6.15;100.00;150215.22;10631422;27;20039;-71
2024/03/09 22:35:11;;;;;;;19.52;16.67;;;;;;;6.05;100.00;150190.78;10633225;27;20126;-70
2024/03/09 22:40:15;;;;;;;20.77;16.80;;;;;;;5.99;100.00;150176.66;10614196;27;20051;-73
2024/03/09 22:45:18;;;;;;;17.88;16.05;;;;;;;5.92;100.00;150158.63;10612806;27;20051;-72
2024/03/09 22:50:25;;;;;;;18.17;16.27;;;;;;;5.80;100.00;150127.72;10612418;27;20086;-71
2024/03/09 22:55:27;;;;;;;17.73;16.02;;;;;;;5.89;100.00;150149.56;10630625;27;20039;-72
2024/03/09 23:00:34;;;;;;;19.38;17.25;;;;;;;5.77;100.00;150120.00;10611885;27;20418;-71
2024/03/09 23:05:39;;;;;;;;;;;;;;;5.80;100.00;150127.72;10630635;27;20058;-71
2024/03/09 23:10:42;;;;;;;18.98;17.05;;;;;;;5.87;100.00;150144.41;10629749;27;19927;-71
2024/03/09 23:15:44;;;;;;;17.10;15.32;;;;;;;5.83;100.00;150136.69;10628250;27;20487;-71
2024/03/09 23:20:47;;;;;;;18.65;16.75;;;;;;;5.75;100.00;150114.81;10609923;27;20066;-71